Time;durP1;ratioP1;P1;durP2;ratioP2;P2;SDS_P1;SDS_P2;PMS_P1;PMS_P2;Temp;Humidity;BMP_temperature;BMP_pressure;BME280_temperature;BME280_humidity;BME280_pressure;Samples;Min_cycle;Max_cycle;Signal;HPM_P1;HPM_P2
2022/10/12 00:00:52;;;;;;;10.57;8.07;;;14.50;99.90;;;;;;5050664;28;20036;-65
2022/10/12 00:03:56;;;;;;;13.80;8.13;;;14.60;99.90;;;;;;5050141;28;20044;-65
2022/10/12 00:07:00;;;;;;;12.95;6.72;;;14.60;99.90;;;;;;5050849;28;20048;-65
2022/10/12 00:10:04;;;;;;;12.20;8.00;;;14.50;99.90;;;;;;5050836;28;20048;-65
2022/10/12 00:13:10;;;;;;;9.25;6.93;;;14.50;99.90;;;;;;5050297;28;20490;-66
2022/10/12 00:16:16;;;;;;;10.38;7.70;;;14.40;99.90;;;;;;5038479;28;20041;-66
2022/10/12 00:19:20;;;;;;;12.73;8.32;;;14.40;99.90;;;;;;5050653;28;20494;-65
2022/10/12 00:22:24;;;;;;;12.35;8.63;;;14.50;99.90;;;;;;5050532;28;20419;-66
2022/10/12 00:25:28;;;;;;;12.00;8.23;;;14.40;99.90;;;;;;5050096;28;20052;-65
2022/10/12 00:28:32;;;;;;;10.40;8.77;;;14.40;99.90;;;;;;5050250;28;20048;-65
2022/10/12 00:31:36;;;;;;;15.55;9.35;;;14.40;99.90;;;;;;5050432;28;20120;-65
2022/10/12 00:34:40;;;;;;;12.45;8.02;;;14.40;99.90;;;;;;5049733;28;20403;-65
2022/10/12 00:37:44;;;;;;;15.85;8.80;;;14.40;99.90;;;;;;5050086;28;20047;-66
2022/10/12 00:40:49;;;;;;;13.23;9.52;;;14.40;99.90;;;;;;5050096;28;20549;-66
2022/10/12 00:43:56;;;;;;;13.02;9.20;;;14.40;99.90;;;;;;5049868;28;20443;-65
2022/10/12 00:47:05;;;;;;;13.88;9.75;;;14.40;99.90;;;;;;5050272;28;20048;-65
2022/10/12 00:50:19;;;;;;;17.40;10.52;;;14.40;99.90;;;;;;5050207;28;20056;-65
2022/10/12 00:53:27;;;;;;;13.57;9.95;;;14.40;99.90;;;;;;5049919;28;20064;-66
2022/10/12 00:56:37;;;;;;;16.70;10.40;;;14.40;99.90;;;;;;5050465;28;20051;-65
2022/10/12 00:59:55;;;;;;;18.20;11.18;;;14.30;99.90;;;;;;5037632;28;20040;-66
2022/10/12 01:02:59;;;;;;;21.88;14.68;;;14.30;99.90;;;;;;5050145;28;20044;-65
2022/10/12 01:06:05;;;;;;;18.23;13.52;;;14.30;99.90;;;;;;5050245;28;20052;-66
2022/10/12 01:09:09;;;;;;;22.85;14.02;;;14.30;99.90;;;;;;5049833;28;20043;-66
2022/10/12 01:12:14;;;;;;;19.92;13.80;;;14.30;99.90;;;;;;5049768;28;20048;-65
2022/10/12 01:15:18;;;;;;;21.05;14.18;;;14.30;99.90;;;;;;5049396;28;20044;-66
2022/10/12 01:18:39;;;;;;;23.10;14.20;;;14.30;99.90;;;;;;5049895;28;20036;-66
2022/10/12 01:21:52;;;;;;;18.75;13.80;;;14.30;99.90;;;;;;5050045;28;20037;-65
2022/10/12 01:25:17;;;;;;;22.08;13.88;;;14.30;99.90;;;;;;5039122;28;20052;-65
2022/10/12 01:28:53;;;;;;;29.35;15.40;;;14.30;99.90;;;;;;5053563;28;20052;-66
2022/10/12 01:32:01;;;;;;;21.00;14.90;;;14.20;99.90;;;;;;5053700;28;20048;-65
2022/10/12 01:35:29;;;;;;;20.15;14.60;;;14.10;99.90;;;;;;5052876;28;20044;-66
2022/10/12 01:38:38;;;;;;;22.95;14.75;;;14.10;99.90;;;;;;5053297;28;20047;-66
2022/10/12 01:41:54;;;;;;;21.63;14.13;;;14.10;99.90;;;;;;5053363;28;20028;-66
2022/10/12 01:45:07;;;;;;;22.67;13.48;;;14.00;99.90;;;;;;5053256;28;20039;-65
2022/10/12 01:48:12;;;;;;;19.00;12.93;;;14.00;99.90;;;;;;5040710;28;20467;-66
2022/10/12 01:51:22;;;;;;;23.10;13.77;;;13.90;99.90;;;;;;5053327;28;20051;-65
2022/10/12 01:54:45;;;;;;;18.75;13.98;;;13.90;99.90;;;;;;5052760;28;20048;-65
2022/10/12 01:58:27;;;;;;;19.88;14.15;;;13.90;99.90;;;;;;5053417;28;20040;-66
2022/10/12 02:01:41;;;;;;;;;;;14.00;99.90;;;;;;5053391;28;20040;-65
2022/10/12 02:05:04;;;;;;;23.13;12.75;;;13.90;99.90;;;;;;5052510;28;19919;-66
2022/10/12 02:08:33;;;;;;;19.20;12.30;;;13.90;99.90;;;;;;5052958;28;20478;-65
2022/10/12 02:11:40;;;;;;;19.25;12.90;;;13.80;99.90;;;;;;5052300;28;20040;-66
2022/10/12 02:14:47;;;;;;;21.83;13.52;;;13.80;99.90;;;;;;5052259;28;20392;-66
2022/10/12 02:17:52;;;;;;;24.35;14.45;;;13.80;99.90;;;;;;5053029;28;20399;-66
2022/10/12 02:20:59;;;;;;;21.92;14.60;;;13.80;99.90;;;;;;5052838;28;20044;-66
2022/10/12 02:24:06;;;;;;;21.77;14.07;;;13.80;99.90;;;;;;5052198;28;20052;-66
2022/10/12 02:27:13;;;;;;;27.90;16.13;;;13.80;99.90;;;;;;5052673;28;20507;-65
2022/10/12 02:30:17;;;;;;;23.15;14.50;;;13.70;99.90;;;;;;5052902;28;20048;-66
2022/10/12 02:33:48;;;;;;;20.10;13.05;;;13.60;99.90;;;;;;5051900;28;20056;-66
2022/10/12 02:37:08;;;;;;;20.40;12.60;;;13.50;99.90;;;;;;5052417;28;20048;-66
2022/10/12 02:40:31;;;;;;;22.45;12.25;;;13.40;99.90;;;;;;5052735;28;20044;-65
2022/10/12 02:43:43;;;;;;;21.40;12.52;;;13.30;99.90;;;;;;5051681;28;20056;-66
2022/10/12 02:46:49;;;;;;;23.08;15.75;;;13.20;99.90;;;;;;5052050;28;20036;-65
2022/10/12 02:49:54;;;;;;;31.70;17.52;;;12.80;99.90;;;;;;5052013;28;20043;-65
2022/10/12 02:52:58;;;;;;;29.13;17.83;;;12.50;99.90;;;;;;5052027;28;20052;-65
2022/10/12 02:56:06;;;;;;;27.70;17.58;;;12.40;99.90;;;;;;5051817;28;20044;-66
2022/10/12 02:59:10;;;;;;;31.58;20.02;;;12.30;99.90;;;;;;5051685;28;20043;-66
2022/10/12 03:02:14;;;;;;;28.58;17.85;;;12.30;99.90;;;;;;5051860;28;20044;-65
2022/10/12 03:05:18;;;;;;;25.08;17.75;;;12.30;99.90;;;;;;5051589;28;20064;-65
2022/10/12 03:08:22;;;;;;;28.33;17.35;;;12.20;99.90;;;;;;5051446;28;20040;-65
2022/10/12 03:11:27;;;;;;;28.25;17.33;;;12.20;99.90;;;;;;5051334;28;20048;-65
2022/10/12 03:14:32;;;;;;;31.40;18.33;;;12.30;99.90;;;;;;5051251;28;20154;-66
2022/10/12 03:17:36;;;;;;;28.27;19.27;;;12.30;99.90;;;;;;5051568;28;20044;-65
2022/10/12 03:20:41;;;;;;;27.42;18.23;;;12.30;99.90;;;;;;5051612;28;20490;-66
2022/10/12 03:23:44;;;;;;;32.35;18.77;;;12.40;99.90;;;;;;5051020;28;20040;-65
2022/10/12 03:26:48;;;;;;;29.80;18.83;;;12.40;99.90;;;;;;5051314;28;20043;-65
2022/10/12 03:29:52;;;;;;;33.65;20.30;;;12.40;99.90;;;;;;5051408;28;20384;-65
2022/10/12 03:32:56;;;;;;;32.60;21.90;;;12.40;99.90;;;;;;5050903;28;20032;-65
2022/10/12 03:36:00;;;;;;;32.35;21.10;;;12.40;99.90;;;;;;5050973;28;20397;-65
2022/10/12 03:39:04;;;;;;;33.00;21.98;;;12.40;99.90;;;;;;5051342;28;20487;-65
2022/10/12 03:42:09;;;;;;;31.42;20.92;;;12.50;99.90;;;;;;5038545;28;20036;-65
2022/10/12 03:45:13;;;;;;;37.25;23.40;;;12.60;99.90;;;;;;5050970;28;20063;-66
2022/10/12 03:48:17;;;;;;;36.25;23.75;;;12.70;99.90;;;;;;5050440;28;20040;-66
2022/10/12 03:51:21;;;;;;;37.85;21.25;;;12.60;99.90;;;;;;5051362;28;20047;-65
2022/10/12 03:54:25;;;;;;;33.95;22.25;;;12.70;99.90;;;;;;5050395;28;20056;-65
2022/10/12 03:57:29;;;;;;;32.53;20.90;;;12.70;99.90;;;;;;5051097;28;20048;-65
2022/10/12 04:00:33;;;;;;;37.10;23.52;;;12.70;99.90;;;;;;5050732;28;20039;-65
2022/10/12 04:03:37;;;;;;;33.88;23.35;;;12.70;99.90;;;;;;5050281;28;20043;-65
2022/10/12 04:06:41;;;;;;;42.63;26.05;;;12.60;99.90;;;;;;5050784;28;20046;-65
2022/10/12 04:09:45;;;;;;;41.55;26.83;;;12.70;99.90;;;;;;5050762;28;20047;-66
2022/10/12 04:12:49;;;;;;;43.83;28.52;;;12.60;99.90;;;;;;5050448;28;20061;-65
2022/10/12 04:15:53;;;;;;;52.58;31.40;;;12.70;99.90;;;;;;5050317;28;20039;-65
2022/10/12 04:18:56;;;;;;;42.97;26.90;;;12.60;99.90;;;;;;5050959;28;20052;-65
2022/10/12 04:22:00;;;;;;;45.70;29.27;;;12.60;99.90;;;;;;5050529;28;20060;-65
2022/10/12 04:25:04;;;;;;;48.15;28.90;;;12.60;99.90;;;;;;5050180;28;20071;-65
2022/10/12 04:28:08;;;;;;;44.63;28.70;;;12.60;99.90;;;;;;5038260;28;20737;-65
2022/10/12 04:31:13;;;;;;;44.03;28.67;;;12.60;99.90;;;;;;5049208;28;20047;-65
2022/10/12 04:34:19;;;;;;;44.92;28.73;;;12.60;99.90;;;;;;5049881;28;20068;-65
2022/10/12 04:37:25;;;;;;;45.80;28.60;;;12.50;99.90;;;;;;5050157;28;20395;-65
2022/10/12 04:40:29;;;;;;;44.75;26.63;;;12.40;99.90;;;;;;5050123;28;20060;-65
2022/10/12 04:43:33;;;;;;;45.40;26.92;;;12.50;99.90;;;;;;5049742;28;20044;-66
2022/10/12 04:46:37;;;;;;;40.53;23.10;;;12.40;99.90;;;;;;5050444;28;20071;-65
2022/10/12 04:49:41;;;;;;;32.40;22.02;;;12.30;99.90;;;;;;5049679;28;20048;-66
2022/10/12 04:52:45;;;;;;;37.13;23.23;;;12.40;99.90;;;;;;5050040;28;20068;-65
2022/10/12 04:55:49;;;;;;;34.17;22.50;;;12.40;99.90;;;;;;5049974;28;20503;-66
2022/10/12 04:58:53;;;;;;;35.80;23.08;;;12.30;99.90;;;;;;5052442;28;20384;-65
2022/10/12 05:01:57;;;;;;;33.78;21.40;;;12.30;99.90;;;;;;5053821;28;20040;-66
2022/10/12 05:05:01;;;;;;;35.33;22.90;;;12.30;99.90;;;;;;5053656;28;20048;-65
2022/10/12 05:08:05;;;;;;;38.92;24.80;;;12.30;99.90;;;;;;5054012;28;20044;-65
2022/10/12 05:11:09;;;;;;;37.13;23.52;;;12.20;99.90;;;;;;5053308;28;20048;-66
2022/10/12 05:14:13;;;;;;;30.92;22.17;;;12.20;99.90;;;;;;5053556;28;20111;-65
2022/10/12 05:17:18;;;;;;;33.92;20.70;;;12.20;99.90;;;;;;5053921;28;20036;-65
2022/10/12 05:20:21;;;;;;;29.88;19.00;;;12.20;99.90;;;;;;5054435;28;20484;-65
2022/10/12 05:23:25;;;;;;;39.58;19.38;;;12.00;99.90;;;;;;5053097;28;20043;-65
2022/10/12 05:26:29;;;;;;;33.65;22.02;;;12.00;99.90;;;;;;5054685;28;20060;-65
2022/10/12 05:29:33;;;;;;;33.33;19.00;;;12.00;99.90;;;;;;5054333;28;20388;-65
2022/10/12 05:32:37;;;;;;;52.75;31.17;;;12.00;99.90;;;;;;5054046;28;20059;-65
2022/10/12 05:35:41;;;;;;;43.22;27.48;;;11.90;99.90;;;;;;5053462;28;20056;-65
2022/10/12 05:38:45;;;;;;;43.70;26.90;;;11.90;99.90;;;;;;5054534;28;20048;-65
2022/10/12 05:41:50;;;;;;;34.90;20.98;;;11.90;99.90;;;;;;5054015;28;20044;-65
2022/10/12 05:44:54;;;;;;;37.47;21.00;;;11.90;99.90;;;;;;5053233;28;20044;-65
2022/10/12 05:47:58;;;;;;;42.90;21.70;;;12.00;99.90;;;;;;5053959;28;20051;-65
2022/10/12 05:51:02;;;;;;;32.95;19.05;;;12.00;99.90;;;;;;5053946;28;20051;-65
2022/10/12 05:54:06;;;;;;;36.25;20.40;;;12.10;99.90;;;;;;5053454;28;20052;-66
2022/10/12 05:57:11;;;;;;;41.22;23.90;;;12.20;99.90;;;;;;5052784;28;20065;-66
2022/10/12 06:00:16;;;;;;;38.38;20.95;;;12.40;99.90;;;;;;5052922;28;20056;-65
2022/10/12 06:03:19;;;;;;;41.90;22.27;;;12.60;99.90;;;;;;5052578;28;20526;-65
2022/10/12 06:06:23;;;;;;;33.40;20.75;;;12.80;99.90;;;;;;5053084;28;20044;-65
2022/10/12 06:09:27;;;;;;;32.80;18.33;;;13.40;99.90;;;;;;5052999;28;20044;-65
2022/10/12 06:12:32;;;;;;;31.95;17.38;;;15.30;99.90;;;;;;5049104;28;20505;-65
2022/10/12 06:15:36;;;;;;;28.92;17.13;;;16.60;99.90;;;;;;5036427;28;20064;-66
2022/10/12 06:18:40;;;;;;;22.92;15.02;;;17.10;99.90;;;;;;5041015;28;20049;-64
2022/10/12 06:21:44;;;;;;;24.95;15.00;;;17.70;99.90;;;;;;5028374;28;20028;-66
2022/10/12 06:24:48;;;;;;;26.67;15.10;;;18.10;99.90;;;;;;5047589;28;20036;-66
2022/10/12 06:27:52;;;;;;;26.88;15.88;;;18.90;99.90;;;;;;5042691;28;20040;-65
2022/10/12 06:30:58;;;;;;;40.25;25.08;;;20.40;99.90;;;;;;5042187;28;20392;-65
2022/10/12 06:34:02;;;;;;;26.13;17.35;;;22.30;99.90;;;;;;5033910;28;20498;-66
2022/10/12 06:37:05;;;;;;;18.02;11.73;;;23.20;99.90;;;;;;5052216;28;20279;-66
2022/10/12 06:40:10;;;;;;;19.33;13.25;;;23.00;99.90;;;;;;5051822;28;20510;-65
2022/10/12 06:43:14;;;;;;;20.75;13.48;;;21.70;99.90;;;;;;5043837;28;20064;-65
2022/10/12 06:46:18;;;;;;;19.90;13.70;;;21.50;99.90;;;;;;5032202;28;20040;-66
2022/10/12 06:49:22;;;;;;;18.67;13.38;;;21.60;99.90;;;;;;5046180;28;20044;-66
2022/10/12 06:52:26;;;;;;;17.80;13.55;;;20.80;99.90;;;;;;5044827;28;20368;-66
2022/10/12 06:55:30;;;;;;;16.88;12.75;;;21.00;99.90;;;;;;5044875;28;20048;-66
2022/10/12 06:58:34;;;;;;;18.13;12.57;;;22.20;99.90;;;;;;5043379;28;20384;-66
2022/10/12 07:01:39;;;;;;;18.83;12.35;;;22.20;99.90;;;;;;5038207;28;20044;-65
2022/10/12 07:04:47;;;;;;;17.55;12.52;;;23.10;99.90;;;;;;5031101;28;20068;-65
2022/10/12 07:07:53;;;;;;;12.50;10.07;;;24.10;99.90;;;;;;5048365;28;20048;-65
2022/10/12 07:11:05;;;;;;;15.07;11.00;;;24.90;99.90;;;;;;5041132;28;20040;-66
2022/10/12 07:14:09;;;;;;;14.75;11.18;;;24.90;99.90;;;;;;5040325;28;20396;-66
2022/10/12 07:17:14;;;;;;;14.80;12.00;;;24.90;99.90;;;;;;5045941;28;20067;-66
2022/10/12 07:20:18;;;;;;;15.38;11.60;;;24.70;99.90;;;;;;5045981;28;20028;-66
2022/10/12 07:23:22;;;;;;;19.13;11.60;;;24.90;99.90;;;;;;5050394;28;20053;-66
2022/10/12 07:26:26;;;;;;;20.73;12.45;;;25.30;99.90;;;;;;5044106;28;20047;-66
2022/10/12 07:29:31;;;;;;;17.88;13.00;;;25.80;99.90;;;;;;5044565;28;20036;-65
2022/10/12 07:32:36;;;;;;;19.15;12.95;;;23.30;99.90;;;;;;5038145;28;20049;-65
2022/10/12 07:35:40;;;;;;;16.25;11.57;;;23.20;99.90;;;;;;5031257;28;20045;-65
2022/10/12 07:38:44;;;;;;;18.80;11.77;;;21.70;99.90;;;;;;5032994;28;20032;-66
2022/10/12 07:41:49;;;;;;;16.88;11.80;;;21.50;99.90;;;;;;5031377;28;20070;-66
2022/10/12 07:44:53;;;;;;;15.93;9.48;;;22.10;99.90;;;;;;5031067;28;20044;-65
2022/10/12 07:47:57;;;;;;;15.23;9.40;;;23.10;99.90;;;;;;5037627;28;20068;-65
2022/10/12 07:51:06;;;;;;;15.50;8.43;;;24.30;99.90;;;;;;5050549;28;20055;-65
2022/10/12 07:54:10;;;;;;;15.10;9.23;;;25.10;99.90;;;;;;5038557;28;20048;-65
2022/10/12 07:57:14;;;;;;;13.40;9.15;;;23.90;99.90;;;;;;5035531;28;20095;-66
2022/10/12 08:00:20;;;;;;;9.93;8.20;;;24.40;99.90;;;;;;5042768;28;20044;-66
2022/10/12 08:03:24;;;;;;;11.07;9.02;;;23.80;99.90;;;;;;5024734;28;20037;-65
2022/10/12 08:06:31;;;;;;;15.63;10.18;;;22.60;99.90;;;;;;5043912;28;20048;-65
2022/10/12 08:09:35;;;;;;;14.02;10.40;;;23.20;99.90;;;;;;5044395;28;20428;-66
2022/10/12 08:12:40;;;;;;;15.73;10.05;;;25.40;99.90;;;;;;5040059;28;20045;-66
2022/10/12 08:15:49;;;;;;;15.13;10.68;;;26.80;99.90;;;;;;5035619;28;20037;-66
2022/10/12 08:18:53;;;;;;;11.50;9.07;;;27.20;99.80;;;;;;5046723;28;20044;-66
2022/10/12 08:21:57;;;;;;;14.07;9.35;;;27.80;99.50;;;;;;5039851;28;20036;-66
2022/10/12 08:25:02;;;;;;;14.30;10.00;;;27.60;99.40;;;;;;5030067;28;20066;-66
2022/10/12 08:28:06;;;;;;;13.88;10.07;;;28.70;98.20;;;;;;5043748;28;20048;-66
2022/10/12 08:31:13;;;;;;;15.40;9.35;;;28.50;97.90;;;;;;5043426;28;20614;-66
2022/10/12 08:34:17;;;;;;;11.98;9.75;;;28.30;97.80;;;;;;5038740;28;20048;-66
2022/10/12 08:37:21;;;;;;;12.45;9.38;;;26.40;98.70;;;;;;5044402;28;20044;-66
2022/10/12 08:40:30;;;;;;;13.73;9.23;;;25.40;99.90;;;;;;5041206;28;20368;-66
2022/10/12 08:43:55;;;;;;;10.80;8.75;;;26.40;99.90;;;;;;5040745;28;20650;-66
2022/10/12 08:47:12;;;;;;;10.52;8.35;;;25.80;99.90;;;;;;5026586;28;20065;-66
2022/10/12 08:50:40;;;;;;;10.80;8.45;;;26.30;99.90;;;;;;5027932;28;20068;-66
2022/10/12 08:54:03;;;;;;;12.32;9.18;;;27.70;99.00;;;;;;5025989;28;20373;-66
2022/10/12 08:57:16;;;;;;;15.98;8.40;;;30.80;96.50;;;;;;5019301;28;20787;-66
2022/10/12 09:00:20;;;;;;;11.07;8.70;;;31.10;94.80;;;;;;5025252;28;20049;-66
2022/10/12 09:03:51;;;;;;;11.55;7.70;;;31.60;93.50;;;;;;5022692;28;20048;-66
2022/10/12 09:07:17;;;;;;;8.48;7.07;;;30.10;93.90;;;;;;5026448;28;20046;-66
2022/10/12 09:10:29;;;;;;;11.13;7.68;;;30.90;94.20;;;;;;5019767;28;20608;-67
2022/10/12 09:13:50;;;;;;;12.05;8.07;;;29.60;94.60;;;;;;5025331;28;20048;-66
2022/10/12 09:16:55;;;;;;;13.05;8.00;;;30.50;93.40;;;;;;5018491;28;20045;-66
2022/10/12 09:20:09;;;;;;;14.57;9.23;;;30.40;94.10;;;;;;5026468;28;20452;-65
2022/10/12 09:23:24;;;;;;;10.30;7.00;;;29.40;93.60;;;;;;5023470;28;20775;-66
2022/10/12 09:26:35;;;;;;;8.90;6.43;;;31.80;91.90;;;;;;5011900;28;20036;-66
2022/10/12 09:29:44;;;;;;;11.02;7.68;;;34.00;91.00;;;;;;5012641;28;20049;-64
2022/10/12 09:32:51;;;;;;;8.40;7.50;;;35.60;89.50;;;;;;5021101;28;20389;-66
2022/10/12 09:35:57;;;;;;;11.18;6.47;;;36.00;88.30;;;;;;5022076;28;20048;-66
2022/10/12 09:39:17;;;;;;;9.60;6.07;;;35.90;86.90;;;;;;5022378;28;20048;-66
2022/10/12 09:42:21;;;;;;;10.00;6.05;;;37.20;84.80;;;;;;5027339;28;20057;-66
2022/10/12 09:45:27;;;;;;;11.00;5.68;;;36.10;83.50;;;;;;5022722;28;20056;-66
2022/10/12 09:48:31;;;;;;;8.68;6.28;;;37.60;82.00;;;;;;5025137;28;20041;-66
2022/10/12 09:51:36;;;;;;;6.75;5.80;;;36.50;81.20;;;;;;5020446;28;20056;-66
2022/10/12 09:54:47;;;;;;;6.63;5.18;;;37.50;79.70;;;;;;5024382;28;20056;-66
2022/10/12 09:57:58;;;;;;;6.63;5.28;;;36.20;80.70;;;;;;5029078;28;20040;-66
2022/10/12 10:01:20;;;;;;;10.25;5.50;;;36.60;79.80;;;;;;5029490;28;20029;-66
2022/10/12 10:04:28;;;;;;;11.15;5.80;;;37.70;77.80;;;;;;5031484;28;20384;-66
2022/10/12 10:07:33;;;;;;;9.48;5.70;;;35.20;78.40;;;;;;5016664;28;20052;-66
2022/10/12 10:10:50;;;;;;;7.68;4.75;;;34.90;80.40;;;;;;5023214;28;20423;-65
2022/10/12 10:13:55;;;;;;;7.72;5.25;;;36.60;80.00;;;;;;5027895;28;20507;-66
2022/10/12 10:17:00;;;;;;;7.32;4.88;;;36.60;78.90;;;;;;5026868;28;20048;-66
2022/10/12 10:20:07;;;;;;;11.77;4.63;;;38.40;77.00;;;;;;5024643;28;20046;-66
2022/10/12 10:23:40;;;;;;;6.07;4.88;;;35.90;75.40;;;;;;5012738;28;20049;-65
2022/10/12 10:27:05;;;;;;;7.65;5.10;;;37.40;75.50;;;;;;4978639;28;20052;-66
2022/10/12 10:30:15;;;;;;;7.88;4.78;;;35.80;75.30;;;;;;5029296;28;20040;-66
2022/10/12 10:33:19;;;;;;;;;;;36.00;74.90;;;;;;5025852;28;20030;-66
2022/10/12 10:36:26;;;;;;;10.45;4.70;;;37.20;72.90;;;;;;5011978;28;19936;-66
2022/10/12 10:39:53;;;;;;;5.80;4.65;;;38.80;71.40;;;;;;5026444;28;20028;-66
2022/10/12 10:43:14;;;;;;;10.52;4.32;;;40.30;69.60;;;;;;5028041;28;20042;-66
2022/10/12 10:46:24;;;;;;;8.32;5.05;;;39.40;70.20;;;;;;5014532;28;20049;-66
2022/10/12 10:49:33;;;;;;;;;;;37.00;71.40;;;;;;5018591;28;20500;-66
2022/10/12 10:52:55;;;;;;;8.50;4.45;;;38.50;71.00;;;;;;5031060;28;19920;-66
2022/10/12 10:56:06;;;;;;;8.02;4.75;;;38.30;71.00;;;;;;5025731;28;20029;-66
2022/10/12 10:59:49;;;;;;;8.35;4.93;;;39.40;68.90;;;;;;5028682;28;20502;-66
2022/10/12 11:02:55;;;;;;;8.98;5.05;;;39.30;69.00;;;;;;5030345;28;20048;-67
2022/10/12 11:06:16;;;;;;;9.10;5.13;;;39.40;69.30;;;;;;5012551;28;20041;-67
2022/10/12 11:09:29;;;;;;;7.97;5.15;;;39.40;69.20;;;;;;5026766;28;20060;-66
2022/10/12 11:12:41;;;;;;;9.52;5.25;;;39.10;69.60;;;;;;5025143;28;20092;-66
2022/10/12 11:15:57;;;;;;;11.98;5.35;;;37.80;68.40;;;;;;5024895;28;20057;-66
2022/10/12 11:19:25;;;;;;;10.50;5.45;;;38.90;69.20;;;;;;5028443;28;20040;-67
2022/10/12 11:22:39;;;;;;;10.38;5.03;;;40.00;68.30;;;;;;5026009;28;20044;-66
2022/10/12 11:26:00;;;;;;;7.38;4.38;;;41.40;66.80;;;;;;5011987;28;20056;-64
2022/10/12 11:29:04;;;;;;;9.77;4.50;;;41.60;65.10;;;;;;5029567;28;20034;-66
2022/10/12 11:32:30;;;;;;;9.73;4.60;;;41.50;65.20;;;;;;5021751;28;20053;-67
2022/10/12 11:35:38;;;;;;;9.40;4.55;;;41.30;65.10;;;;;;5023373;28;20045;-67
2022/10/12 11:38:48;;;;;;;7.65;4.50;;;41.00;65.00;;;;;;5026345;28;20025;-67
2022/10/12 11:41:54;;;;;;;6.75;4.55;;;38.90;66.30;;;;;;5031623;28;20045;-67
2022/10/12 11:45:04;;;;;;;7.80;4.70;;;38.80;66.00;;;;;;5023928;28;20244;-67
2022/10/12 11:48:14;;;;;;;10.18;5.05;;;37.70;66.20;;;;;;5028858;28;20046;-67
2022/10/12 11:51:17;;;;;;;7.47;4.50;;;38.60;66.90;;;;;;5021031;28;20032;-66
2022/10/12 11:54:28;;;;;;;9.38;4.60;;;37.80;68.00;;;;;;5013687;28;20042;-66
2022/10/12 11:57:36;;;;;;;9.13;4.68;;;36.50;67.80;;;;;;5022394;28;20788;-66
2022/10/12 12:00:46;;;;;;;6.35;3.90;;;37.60;67.50;;;;;;5023644;28;20044;-67
2022/10/12 12:04:32;;;;;;;9.40;4.75;;;38.00;68.70;;;;;;5028198;28;20053;-66
2022/10/12 12:07:44;;;;;;;6.05;3.97;;;38.20;66.00;;;;;;5022099;28;20042;-66
2022/10/12 12:11:01;;;;;;;;;;;38.10;67.10;;;;;;5014722;28;20033;-66
2022/10/12 12:14:26;;;;;;;8.75;4.10;;;37.20;67.60;;;;;;5028171;28;20249;-66
2022/10/12 12:17:32;;;;;;;9.00;4.22;;;36.50;68.00;;;;;;5022090;28;20049;-66
2022/10/12 12:20:42;;;;;;;7.45;4.78;;;33.10;68.80;;;;;;5021294;28;20044;-66
2022/10/12 12:23:54;;;;;;;16.87;5.00;;;31.30;72.90;;;;;;5027142;28;20044;-66
2022/10/12 12:26:58;;;;;;;10.63;5.38;;;30.80;74.90;;;;;;5023965;28;20376;-65
2022/10/12 12:30:36;;;;;;;10.93;5.18;;;31.40;75.00;;;;;;5028001;28;20048;-66
2022/10/12 12:33:44;;;;;;;11.15;4.47;;;31.80;74.70;;;;;;5014540;28;20515;-66
2022/10/12 12:36:50;;;;;;;11.68;4.55;;;33.00;73.70;;;;;;5020111;28;20036;-66
2022/10/12 12:39:56;;;;;;;10.52;4.90;;;34.20;73.30;;;;;;5027447;28;20043;-66
2022/10/12 12:43:18;;;;;;;9.00;4.72;;;34.80;70.80;;;;;;5019594;28;20049;-66
2022/10/12 12:46:24;;;;;;;8.38;5.35;;;34.20;71.80;;;;;;5018305;28;20060;-66
2022/10/12 12:49:40;;;;;;;7.90;4.80;;;32.60;73.50;;;;;;5026661;28;20064;-65
2022/10/12 12:52:44;;;;;;;11.57;5.35;;;32.50;73.80;;;;;;5003855;28;20045;-65
2022/10/12 12:56:17;;;;;;;8.82;5.00;;;32.90;73.70;;;;;;5024880;28;20388;-66
2022/10/12 12:59:45;;;;;;;12.65;5.95;;;32.70;74.00;;;;;;5017741;28;20044;-66
2022/10/12 13:03:11;;;;;;;11.52;5.68;;;32.30;73.90;;;;;;5025567;28;20044;-65
2022/10/12 13:06:43;;;;;;;8.25;4.93;;;33.60;74.10;;;;;;5023990;28;20028;-66
2022/10/12 13:09:55;;;;;;;8.60;5.07;;;33.50;74.70;;;;;;5024926;28;20400;-66
2022/10/12 13:13:26;;;;;;;;;;;33.50;74.00;;;;;;5025499;28;20049;-66
2022/10/12 13:17:03;;;;;;;10.40;6.25;;;32.90;74.30;;;;;;5022507;28;19928;-66
2022/10/12 13:20:23;;;;;;;8.25;5.00;;;31.00;75.60;;;;;;5018686;28;20044;-65
2022/10/12 13:23:29;;;;;;;8.27;5.40;;;30.40;77.90;;;;;;5026760;28;20389;-65
2022/10/12 13:26:34;;;;;;;12.57;5.85;;;30.40;77.80;;;;;;5027839;28;20496;-65
2022/10/12 13:29:59;;;;;;;14.32;4.88;;;30.80;78.80;;;;;;5028574;28;20388;-65
2022/10/12 13:33:28;;;;;;;10.05;5.40;;;30.80;75.80;;;;;;5030957;28;20066;-65
2022/10/12 13:36:44;;;;;;;10.07;6.32;;;30.60;76.70;;;;;;5026620;28;20507;-64
2022/10/12 13:39:49;;;;;;;8.60;5.25;;;29.20;78.80;;;;;;5030106;28;20048;-65
2022/10/12 13:42:53;;;;;;;10.70;5.70;;;28.90;81.10;;;;;;5027105;28;20068;-65
2022/10/12 13:45:58;;;;;;;9.95;5.65;;;29.20;81.70;;;;;;5031982;28;20048;-65
2022/10/12 13:49:10;;;;;;;9.65;5.72;;;28.60;81.70;;;;;;5031749;28;20076;-65
2022/10/12 13:52:17;;;;;;;11.30;6.10;;;27.70;83.00;;;;;;5015513;28;20048;-64
2022/10/12 13:55:25;;;;;;;9.18;5.95;;;27.60;82.80;;;;;;5023914;28;20388;-65
2022/10/12 13:58:32;;;;;;;16.45;6.60;;;28.20;82.20;;;;;;5033557;28;20503;-65
2022/10/12 14:01:47;;;;;;;8.50;5.70;;;28.70;80.70;;;;;;5031417;28;20092;-65
2022/10/12 14:04:57;;;;;;;9.63;6.20;;;28.70;80.50;;;;;;5029653;28;20507;-65
2022/10/12 14:08:15;;;;;;;11.48;5.75;;;29.00;81.10;;;;;;5024671;28;20041;-65
2022/10/12 14:11:19;;;;;;;11.43;6.38;;;29.10;81.30;;;;;;5029318;28;20443;-65
2022/10/12 14:14:32;;;;;;;7.40;5.40;;;28.70;80.80;;;;;;5027504;28;20060;-65
2022/10/12 14:17:43;;;;;;;11.85;6.75;;;28.50;81.50;;;;;;5026501;28;20040;-65
2022/10/12 14:20:47;;;;;;;15.45;6.45;;;28.40;82.20;;;;;;5023665;28;20040;-65
2022/10/12 14:23:57;;;;;;;11.02;6.55;;;28.20;83.10;;;;;;5028203;28;20048;-65
2022/10/12 14:27:07;;;;;;;8.83;5.57;;;27.90;82.60;;;;;;5028791;28;20057;-65
2022/10/12 14:30:21;;;;;;;12.10;6.32;;;27.80;83.50;;;;;;5029122;28;20044;-65
2022/10/12 14:33:26;;;;;;;9.00;6.10;;;27.60;84.50;;;;;;5025093;28;20037;-65
2022/10/12 14:36:30;;;;;;;14.25;6.22;;;27.50;84.90;;;;;;5022520;28;20045;-65
2022/10/12 14:39:35;;;;;;;9.55;6.10;;;27.30;85.30;;;;;;5029986;28;20388;-65
2022/10/12 14:42:52;;;;;;;10.88;5.78;;;27.10;85.30;;;;;;5025987;28;20052;-65
2022/10/12 14:45:55;;;;;;;12.35;6.63;;;27.00;86.00;;;;;;5024685;28;20049;-65
2022/10/12 14:49:00;;;;;;;12.50;5.82;;;26.80;87.30;;;;;;5031614;28;20066;-65
2022/10/12 14:52:05;;;;;;;15.23;6.30;;;26.60;87.40;;;;;;5030731;28;20052;-65
2022/10/12 14:55:15;;;;;;;12.10;6.18;;;26.40;88.70;;;;;;5029891;28;20035;-65
2022/10/12 14:58:19;;;;;;;10.60;5.97;;;26.20;88.20;;;;;;5028570;28;20049;-65
2022/10/12 15:01:23;;;;;;;15.85;6.85;;;26.00;88.70;;;;;;5024600;28;20037;-65
2022/10/12 15:04:27;;;;;;;13.48;6.53;;;25.80;88.20;;;;;;5027687;28;20475;-65
2022/10/12 15:07:33;;;;;;;12.60;6.53;;;25.60;89.60;;;;;;5024606;28;20049;-66
2022/10/12 15:10:36;;;;;;;17.23;6.43;;;25.40;91.20;;;;;;5025525;28;20507;-67
2022/10/12 15:13:41;;;;;;;10.00;6.20;;;25.30;91.20;;;;;;5028987;28;20040;-67
2022/10/12 15:16:45;;;;;;;9.88;6.30;;;25.10;92.30;;;;;;5024626;28;20052;-66
2022/10/12 15:19:50;;;;;;;11.18;6.35;;;24.90;93.00;;;;;;5025541;28;20057;-66
2022/10/12 15:22:56;;;;;;;13.18;6.25;;;24.60;92.60;;;;;;5028624;28;20049;-66
2022/10/12 15:26:00;;;;;;;14.40;6.88;;;24.50;92.20;;;;;;5032731;28;20527;-66
2022/10/12 15:29:04;;;;;;;9.93;6.90;;;24.40;94.50;;;;;;5031995;28;20048;-66
2022/10/12 15:32:13;;;;;;;11.52;6.68;;;24.20;94.40;;;;;;5031572;28;20070;-66
2022/10/12 15:35:21;;;;;;;12.57;6.68;;;24.00;95.10;;;;;;5030968;28;20041;-65
2022/10/12 15:38:25;;;;;;;13.38;6.90;;;23.90;95.80;;;;;;5031686;28;20053;-66
2022/10/12 15:41:29;;;;;;;16.10;6.72;;;23.80;95.70;;;;;;5031217;28;20049;-66
2022/10/12 15:44:39;;;;;;;9.70;6.30;;;23.70;95.60;;;;;;5030788;28;20037;-65
2022/10/12 15:47:45;;;;;;;11.30;7.03;;;23.60;96.60;;;;;;5030773;28;20044;-66
2022/10/12 15:50:49;;;;;;;15.00;6.88;;;23.50;96.70;;;;;;5030840;28;20064;-66
2022/10/12 15:53:54;;;;;;;17.42;7.45;;;23.40;96.80;;;;;;5030723;28;20148;-65
2022/10/12 15:56:58;;;;;;;21.10;7.63;;;23.30;97.50;;;;;;5030795;28;20057;-65
2022/10/12 16:00:02;;;;;;;12.77;6.90;;;23.20;98.30;;;;;;5030784;28;20503;-66
2022/10/12 16:03:18;;;;;;;13.00;6.93;;;23.10;99.20;;;;;;5030671;28;20041;-65
2022/10/12 16:06:22;;;;;;;16.98;7.75;;;22.90;99.90;;;;;;5030502;28;20040;-65
2022/10/12 16:09:26;;;;;;;14.02;7.55;;;22.70;99.90;;;;;;5030589;28;20051;-66